Decoded Metar for LEZL (SEVILLA in SPAIN) (IATA:SVQ) | Meteo·Mobile Aviation Weather
aviador You're here:

LEZL Decoded Metar

SEVILLA in SPAIN
Report Time2019-07-20 00:30:00
UTC Time2019-07-20 00:46:55
Flight Rules vfr VFR
Wind220° at 05 kt
W.Decomp.*RWY 27: 3.3 kt HW 3.7 kt LCW
Visibility9999 m
Phenomena:N/A
Clouds:N/A
Expected CloudBase > 5,200 ft AGL from Temp-Dew spread
CeilingNone
Temp27°C (ISA +12)
Dew Point14°C (45% RH)
Heat Index27.1°C
AAT26.5°C
QNH1012 hPa
Density Alt1,759 ft
Elevation102 ft
Report Wrong Elevation
Raw Report
LEZL 200030Z AUTO 22005KT 9999 NCD 27/14 Q1012=

Extra information for LEZL:More info

Metar Taf Metar & Taf Last 4 Metars F.Rules Stats Wind Profile Meteogram Temp Stats Airport Information Weather charts Add Link Nearby VenuesMetar ALERT Operation Metar Decoded Social comments